createdAt,value
2022-09-21T00:01:00.421Z,4.20
2022-09-21T00:03:28.994Z,3.70
2022-09-21T00:06:03.500Z,4.23
2022-09-21T00:08:31.998Z,3.73
2022-09-21T00:11:02.039Z,4.50
2022-09-21T00:13:30.577Z,3.40
2022-09-21T00:15:59.038Z,3.43
2022-09-21T00:18:28.118Z,3.67
2022-09-21T00:20:56.618Z,3.23
2022-09-21T00:23:25.077Z,3.83
2022-09-21T00:25:53.570Z,3.90
2022-09-21T00:28:23.490Z,3.77
2022-09-21T00:30:52.090Z,2.70
2022-09-21T00:33:20.616Z,2.93
2022-09-21T00:35:49.113Z,2.67
2022-09-21T00:38:17.583Z,2.53
2022-09-21T00:40:46.091Z,2.50
2022-09-21T00:43:15.171Z,2.70
2022-09-21T00:45:45.193Z,2.70
2022-09-21T00:48:13.735Z,2.50
2022-09-21T00:50:42.809Z,2.40
2022-09-21T00:53:11.588Z,2.60
2022-09-21T00:55:41.985Z,2.00
2022-09-21T00:58:10.965Z,1.93
2022-09-21T01:00:40.374Z,2.00
2022-09-21T01:03:10.380Z,1.90
2022-09-21T01:05:38.857Z,1.80
2022-09-21T01:08:08.109Z,1.90
2022-09-21T01:10:40.058Z,2.13
2022-09-21T01:13:09.678Z,1.73
2022-09-21T01:15:40.260Z,1.70
2022-09-21T01:18:13.230Z,1.70
2022-09-21T01:20:52.582Z,2.27
2022-09-21T01:23:50.905Z,1.70
2022-09-21T01:26:23.026Z,1.90
2022-09-21T01:29:03.662Z,1.53
2022-09-21T01:31:33.554Z,1.97
2022-09-21T01:34:03.677Z,1.73
2022-09-21T01:36:32.902Z,1.77
2022-09-21T01:39:02.841Z,2.10
2022-09-21T01:41:31.293Z,1.10
2022-09-21T01:44:01.546Z,1.63
2022-09-21T01:46:32.271Z,1.60
2022-09-21T01:49:03.693Z,1.17
2022-09-21T01:51:32.151Z,1.43
2022-09-21T01:54:01.237Z,1.30
2022-09-21T01:56:30.059Z,1.57
2022-09-21T01:59:01.409Z,1.13
2022-09-21T02:01:31.493Z,1.60
2022-09-21T02:04:00.779Z,1.40
2022-09-21T02:06:29.212Z,1.27
2022-09-21T02:08:58.082Z,1.40
2022-09-21T02:11:26.319Z,1.30
2022-09-21T02:13:55.066Z,1.37
2022-09-21T02:16:34.171Z,1.00
2022-09-21T02:19:09.397Z,1.30
2022-09-21T02:21:40.695Z,0.90
2022-09-21T02:24:10.716Z,0.80
2022-09-21T02:26:41.262Z,1.07
2022-09-21T02:29:12.386Z,1.13
2022-09-21T02:31:43.827Z,1.33
2022-09-21T02:34:12.711Z,1.07
2022-09-21T02:36:43.383Z,1.20
2022-09-21T02:39:12.518Z,1.10
2022-09-21T02:41:42.442Z,1.17
2022-09-21T02:44:11.504Z,0.93
2022-09-21T02:46:40.430Z,1.07
2022-09-21T02:49:10.603Z,0.80
2022-09-21T02:51:39.759Z,0.60
2022-09-21T02:54:08.409Z,0.93
2022-09-21T02:56:36.731Z,1.00
2022-09-21T02:59:05.475Z,1.17
2022-09-21T03:01:33.797Z,0.90
2022-09-21T03:04:02.338Z,0.67
2022-09-21T03:06:31.899Z,1.03
2022-09-21T03:09:00.476Z,1.17
2022-09-21T03:11:28.925Z,0.87
2022-09-21T03:13:57.256Z,1.20
2022-09-21T03:16:26.514Z,0.90
2022-09-21T03:18:54.759Z,0.87
2022-09-21T03:21:23.068Z,0.77
2022-09-21T03:23:52.864Z,0.70
2022-09-21T03:26:22.306Z,0.87
2022-09-21T03:28:50.552Z,0.73
2022-09-21T03:31:18.857Z,0.80
2022-09-21T03:33:47.072Z,0.73
2022-09-21T03:36:15.345Z,0.67
2022-09-21T03:38:44.300Z,0.93
2022-09-21T03:41:15.231Z,0.83
2022-09-21T03:43:43.559Z,1.10
2022-09-21T03:46:11.819Z,0.83
2022-09-21T03:48:42.382Z,0.60
2022-09-21T03:51:10.609Z,0.87
2022-09-21T03:53:38.839Z,0.73
2022-09-21T03:56:07.201Z,0.60
2022-09-21T03:58:36.778Z,0.90
2022-09-21T04:01:05.076Z,1.10
2022-09-21T04:03:33.432Z,1.00
2022-09-21T04:06:01.675Z,1.17
2022-09-21T04:08:29.897Z,0.87
2022-09-21T04:10:58.174Z,1.30
2022-09-21T04:13:26.346Z,1.20
2022-09-21T04:15:55.961Z,1.17
2022-09-21T04:18:24.176Z,1.10
2022-09-21T04:20:52.357Z,0.80
2022-09-21T04:23:20.648Z,1.10
2022-09-21T04:25:49.055Z,0.97
2022-09-21T04:28:17.284Z,1.10
2022-09-21T04:30:45.542Z,1.03
2022-09-21T04:33:15.527Z,1.10
2022-09-21T04:35:43.762Z,1.20
2022-09-21T04:38:13.627Z,1.10
2022-09-21T04:40:41.909Z,0.90
2022-09-21T04:43:10.179Z,0.90
2022-09-21T04:45:39.392Z,1.40
2022-09-21T04:48:07.546Z,0.80
2022-09-21T04:50:37.151Z,0.80
2022-09-21T04:53:05.845Z,1.27
2022-09-21T04:55:34.062Z,0.57
2022-09-21T04:58:02.272Z,1.10
2022-09-21T05:00:30.509Z,1.00
2022-09-21T05:02:58.940Z,0.83
2022-09-21T05:05:27.240Z,0.80
2022-09-21T05:07:56.796Z,1.03
2022-09-21T05:10:24.025Z,1.10
2022-09-21T05:12:52.720Z,0.70
2022-09-21T05:15:21.995Z,0.80
2022-09-21T05:17:50.244Z,1.23
2022-09-21T05:20:18.427Z,1.07
2022-09-21T05:22:46.626Z,1.10
2022-09-21T05:25:16.304Z,0.80
2022-09-21T05:27:44.564Z,1.27
2022-09-21T05:30:13.532Z,0.83
2022-09-21T05:32:45.130Z,0.80
2022-09-21T05:35:14.998Z,0.83
2022-09-21T05:37:46.173Z,0.70
2022-09-21T05:40:16.267Z,0.63
2022-09-21T05:42:45.063Z,1.03
2022-09-21T05:45:18.722Z,0.67
2022-09-21T05:47:52.601Z,1.30
2022-09-21T05:50:24.560Z,0.77
2022-09-21T05:52:54.035Z,0.60
2022-09-21T05:55:26.485Z,0.77
2022-09-21T05:57:56.383Z,0.70
2022-09-21T06:00:25.081Z,0.70
2022-09-21T06:02:57.408Z,0.93
2022-09-21T06:05:25.957Z,1.10
2022-09-21T06:07:54.166Z,0.90
2022-09-21T06:10:24.715Z,1.17
2022-09-21T06:12:52.930Z,1.40
2022-09-21T06:15:21.495Z,1.00
2022-09-21T06:17:49.730Z,0.77
2022-09-21T06:20:18.031Z,1.00
2022-09-21T06:22:46.331Z,0.90
2022-09-21T06:25:14.648Z,0.80
2022-09-21T06:27:44.252Z,1.10
2022-09-21T06:30:13.051Z,0.90
2022-09-21T06:32:43.557Z,0.80
2022-09-21T06:35:11.784Z,0.90
2022-09-21T06:37:42.062Z,1.00
2022-09-21T06:40:10.923Z,1.40
2022-09-21T06:42:39.285Z,1.40
2022-09-21T06:45:09.887Z,2.07
2022-09-21T06:47:38.081Z,1.93
2022-09-21T06:50:06.534Z,1.27
2022-09-21T06:52:34.917Z,1.73
2022-09-21T06:55:03.137Z,1.47
2022-09-21T06:57:31.393Z,1.67
2022-09-21T06:59:59.743Z,2.37
2022-09-21T07:02:29.325Z,2.23
2022-09-21T07:04:58.595Z,2.43
2022-09-21T07:07:26.923Z,3.00
2022-09-21T07:12:43.751Z,2.00
2022-09-21T07:15:13.538Z,2.07
2022-09-21T07:17:50.343Z,2.07
2022-09-21T07:20:20.290Z,1.87
2022-09-21T07:22:48.656Z,2.23
2022-09-21T07:25:16.930Z,2.40
2022-09-21T07:27:45.150Z,2.33
2022-09-21T07:30:13.816Z,2.40
2022-09-21T07:32:43.356Z,2.77
2022-09-21T07:35:11.987Z,2.93
2022-09-21T07:37:40.280Z,3.43
2022-09-21T07:40:09.102Z,2.60
2022-09-21T07:42:37.337Z,3.20
2022-09-21T07:45:05.794Z,3.57
2022-09-21T07:47:33.989Z,3.30
2022-09-21T07:50:03.547Z,3.93
2022-09-21T07:52:31.851Z,3.57
2022-09-21T07:55:00.047Z,3.80
2022-09-21T07:57:46.339Z,3.37
2022-09-21T08:00:15.161Z,2.80
2022-09-21T08:02:47.524Z,3.20
2022-09-21T08:05:17.676Z,3.17
2022-09-21T08:07:45.890Z,3.37
2022-09-21T08:10:14.082Z,2.97
2022-09-21T08:12:44.525Z,2.80
2022-09-21T08:15:37.018Z,3.20
2022-09-21T08:18:02.849Z,3.07
2022-09-21T08:20:32.423Z,2.87
2022-09-21T08:23:00.997Z,3.30
2022-09-21T08:25:30.356Z,3.07
2022-09-21T08:28:03.195Z,2.73
2022-09-21T08:30:34.570Z,3.00
2022-09-21T08:33:03.500Z,3.10
2022-09-21T08:35:33.795Z,2.43
2022-09-21T08:38:02.125Z,3.47
2022-09-21T08:40:30.435Z,2.43
2022-09-21T08:42:59.692Z,3.10
2022-09-21T08:45:28.908Z,2.33
2022-09-21T08:47:57.951Z,2.23
2022-09-21T08:50:38.004Z,2.50
2022-09-21T08:53:07.337Z,2.00
2022-09-21T08:55:35.716Z,2.20
2022-09-21T08:58:04.037Z,2.40
2022-09-21T09:00:33.984Z,2.40
2022-09-21T09:03:09.766Z,2.00
2022-09-21T09:05:42.773Z,1.70
2022-09-21T09:08:15.060Z,2.63
2022-09-21T09:10:43.793Z,1.50
2022-09-21T09:13:17.605Z,2.10
2022-09-21T09:15:49.258Z,2.10
2022-09-21T09:18:20.340Z,1.90
2022-09-21T09:20:50.097Z,1.60
2022-09-21T09:23:20.723Z,1.20
2022-09-21T09:25:50.486Z,1.10
2022-09-21T09:28:22.135Z,1.10
2022-09-21T09:30:51.189Z,1.03
2022-09-21T09:33:21.186Z,0.60
2022-09-21T09:35:51.197Z,1.57
2022-09-21T09:38:20.375Z,0.70
2022-09-21T09:40:51.710Z,1.23
2022-09-21T09:43:21.501Z,0.90
2022-09-21T09:45:52.471Z,1.10
2022-09-21T09:48:24.114Z,1.30
2022-09-21T09:50:53.775Z,1.30
2022-09-21T09:53:22.626Z,1.60
2022-09-21T09:55:51.338Z,1.40
2022-09-21T09:58:20.235Z,1.60
2022-09-21T10:00:49.003Z,2.07
2022-09-21T10:03:18.044Z,2.37
2022-09-21T10:05:46.354Z,1.50
2022-09-21T10:08:31.879Z,1.20
2022-09-21T10:11:00.236Z,1.93
2022-09-21T10:13:29.169Z,1.40
2022-09-21T10:15:57.916Z,1.47
2022-09-21T10:18:26.908Z,1.20
2022-09-21T10:21:02.289Z,1.17
2022-09-21T10:23:33.448Z,1.07
2022-09-21T10:26:02.586Z,1.40
2022-09-21T10:28:30.900Z,1.40
2022-09-21T10:31:27.180Z,1.70
2022-09-21T10:33:56.196Z,1.87
2022-09-21T10:36:31.546Z,2.03
2022-09-21T10:39:13.797Z,2.67
2022-09-21T10:41:42.133Z,1.30
2022-09-21T10:44:13.751Z,1.83
2022-09-21T10:46:42.081Z,1.63
2022-09-21T10:49:14.698Z,2.00
2022-09-21T10:51:42.913Z,1.83
2022-09-21T10:54:11.256Z,1.80
2022-09-21T10:56:40.952Z,1.53
2022-09-21T10:59:12.644Z,1.00
2022-09-21T11:01:45.121Z,1.77
2022-09-21T11:04:13.910Z,1.30
2022-09-21T11:06:42.968Z,1.80
2022-09-21T11:09:11.621Z,0.80
2022-09-21T11:11:44.629Z,1.23
2022-09-21T11:14:16.545Z,1.17
2022-09-21T11:16:47.147Z,1.40
2022-09-21T11:19:17.906Z,0.80
2022-09-21T11:21:46.923Z,0.70
2022-09-21T11:24:16.808Z,1.20
2022-09-21T11:26:48.717Z,0.90
2022-09-21T11:29:17.585Z,0.77
2022-09-21T11:31:49.129Z,0.93
2022-09-21T11:34:22.580Z,0.70
2022-09-21T11:36:53.449Z,0.80
2022-09-21T11:39:23.413Z,0.70
2022-09-21T11:42:00.457Z,0.27
2022-09-21T11:44:49.241Z,0.73
2022-09-21T11:47:20.381Z,0.60
2022-09-21T11:50:07.771Z,0.57
2022-09-21T11:52:47.682Z,0.87
2022-09-21T11:55:23.510Z,0.70
2022-09-21T11:57:55.263Z,0.70
2022-09-21T12:00:25.011Z,0.80
2022-09-21T12:03:04.343Z,0.50
2022-09-21T12:05:33.510Z,0.80
2022-09-21T12:08:06.272Z,0.73
2022-09-21T12:10:39.234Z,0.60
2022-09-21T12:13:10.534Z,0.80
2022-09-21T12:15:40.960Z,0.43
2022-09-21T12:18:09.877Z,0.67
2022-09-21T12:20:41.192Z,0.67
2022-09-21T12:23:10.810Z,0.97
2022-09-21T12:25:40.853Z,0.70
2022-09-21T12:28:13.258Z,0.70
2022-09-21T12:30:41.749Z,0.90
2022-09-21T12:33:11.865Z,0.83
2022-09-21T12:35:42.063Z,1.00
2022-09-21T12:38:12.448Z,1.57
2022-09-21T12:40:43.434Z,1.03
2022-09-21T12:43:18.120Z,1.07
2022-09-21T12:45:48.035Z,0.83
2022-09-21T12:48:22.447Z,1.00
2022-09-21T12:50:51.935Z,0.83
2022-09-21T12:53:20.704Z,0.67
2022-09-21T12:55:51.144Z,1.17
2022-09-21T12:58:24.577Z,0.83
2022-09-21T13:00:56.854Z,0.50
2022-09-21T13:03:27.772Z,1.20
2022-09-21T13:06:01.874Z,0.87
2022-09-21T13:08:30.556Z,0.70
2022-09-21T13:11:00.863Z,1.20
2022-09-21T13:13:30.914Z,1.00
2022-09-21T13:16:00.069Z,2.07
2022-09-21T13:18:33.762Z,1.07
2022-09-21T13:21:05.004Z,1.33
2022-09-21T13:23:41.932Z,1.40
2022-09-21T13:26:10.548Z,0.90
2022-09-21T13:29:03.137Z,0.80
2022-09-21T13:31:45.045Z,1.20
2022-09-21T13:34:23.512Z,1.17
2022-09-21T13:37:25.254Z,1.07
2022-09-21T13:39:57.438Z,1.00
2022-09-21T13:42:44.386Z,0.80
2022-09-21T13:45:27.579Z,0.80
2022-09-21T13:47:59.475Z,0.60
2022-09-21T13:50:28.641Z,0.60
2022-09-21T13:52:58.718Z,0.87
2022-09-21T13:55:29.311Z,0.83
2022-09-21T13:57:58.904Z,0.40
2022-09-21T14:00:37.077Z,0.50
2022-09-21T14:03:07.768Z,0.40
2022-09-21T14:05:38.038Z,0.50
2022-09-21T14:08:07.105Z,0.63
2022-09-21T14:10:36.146Z,0.50
2022-09-21T14:13:04.868Z,0.43
2022-09-21T14:15:34.542Z,0.47
2022-09-21T14:18:26.575Z,0.60
2022-09-21T14:21:17.221Z,0.60
2022-09-21T14:24:05.093Z,0.70
2022-09-21T14:26:34.250Z,0.43
2022-09-21T14:29:07.767Z,0.67
2022-09-21T14:31:36.436Z,0.50
2022-09-21T14:34:05.024Z,0.27
2022-09-21T14:36:39.416Z,0.47
2022-09-21T14:39:08.377Z,0.73
2022-09-21T14:41:39.186Z,0.40
2022-09-21T14:44:07.589Z,0.77
2022-09-21T14:46:53.978Z,0.30
2022-09-21T14:49:32.866Z,0.50
2022-09-21T14:52:12.883Z,0.40
2022-09-21T14:54:45.642Z,0.73
2022-09-21T14:57:35.287Z,0.40
2022-09-21T15:00:08.372Z,0.50
2022-09-21T15:02:37.219Z,0.50
2022-09-21T15:05:16.036Z,0.30
2022-09-21T15:08:05.232Z,4.10
2022-09-21T15:10:55.132Z,7.63
2022-09-21T15:13:42.683Z,5.30
2022-09-21T15:16:23.119Z,5.50
2022-09-21T15:18:52.187Z,4.93
2022-09-21T15:21:26.265Z,3.53
2022-09-21T15:23:56.012Z,2.90
2022-09-21T15:26:29.276Z,2.77
2022-09-21T15:29:09.199Z,2.33
2022-09-21T15:31:38.311Z,1.80
2022-09-21T15:34:06.850Z,1.67
2022-09-21T15:36:35.919Z,1.63
2022-09-21T15:39:05.612Z,1.50
2022-09-21T15:41:41.245Z,0.90
2022-09-21T15:44:14.793Z,1.07
2022-09-21T15:46:43.263Z,0.73
2022-09-21T15:49:15.323Z,1.50
2022-09-21T15:51:45.778Z,0.93
2022-09-21T15:54:21.334Z,1.07
2022-09-21T15:56:49.685Z,1.10
2022-09-21T15:59:18.167Z,0.90
2022-09-21T16:01:47.664Z,0.80
2022-09-21T16:04:17.827Z,0.67
2022-09-21T16:06:47.548Z,0.77
2022-09-21T16:09:38.522Z,0.90
2022-09-21T16:12:21.639Z,1.00
2022-09-21T16:14:54.824Z,0.40
2022-09-21T16:17:24.398Z,0.70
2022-09-21T16:20:11.326Z,0.70
2022-09-21T16:22:39.846Z,0.70
2022-09-21T16:25:21.755Z,0.60
2022-09-21T16:27:54.309Z,0.60
2022-09-21T16:30:42.157Z,0.73
2022-09-21T16:33:28.830Z,0.67
2022-09-21T16:35:57.197Z,0.60
2022-09-21T16:38:26.340Z,0.50
2022-09-21T16:40:56.746Z,0.50
2022-09-21T16:43:25.328Z,0.50
2022-09-21T16:45:53.546Z,0.50
2022-09-21T16:48:21.718Z,0.40
2022-09-21T16:50:53.968Z,0.30
2022-09-21T16:53:23.597Z,0.70
2022-09-21T16:55:53.314Z,0.40
2022-09-21T16:58:23.013Z,0.50
2022-09-21T17:00:55.699Z,0.57
2022-09-21T17:03:24.368Z,0.40
2022-09-21T17:05:52.532Z,0.47
2022-09-21T17:08:20.902Z,0.97
2022-09-21T17:10:49.209Z,0.50
2022-09-21T17:13:20.520Z,0.43
2022-09-21T17:15:50.434Z,0.47
2022-09-21T17:18:18.682Z,0.40
2022-09-21T17:20:47.339Z,0.50
2022-09-21T17:23:15.715Z,0.40
2022-09-21T17:25:45.607Z,0.47
2022-09-21T17:28:14.216Z,1.03
2022-09-21T17:30:43.001Z,1.20
2022-09-21T17:33:12.544Z,1.00
2022-09-21T17:35:41.325Z,0.90
2022-09-21T17:38:14.107Z,0.70
2022-09-21T17:40:43.512Z,1.23
2022-09-21T17:43:22.356Z,1.20
2022-09-21T17:45:51.924Z,1.30
2022-09-21T17:48:21.920Z,1.13
2022-09-21T17:50:50.518Z,1.27
2022-09-21T17:53:37.430Z,1.17
2022-09-21T17:56:13.369Z,0.83
2022-09-21T17:58:43.757Z,1.57
2022-09-21T18:01:14.251Z,1.00
2022-09-21T18:03:44.603Z,1.23
2022-09-21T18:06:13.156Z,1.30
2022-09-21T18:08:41.760Z,1.50
2022-09-21T18:11:14.704Z,1.50
2022-09-21T18:13:48.189Z,1.50
2022-09-21T18:16:21.648Z,1.70
2022-09-21T18:18:52.654Z,1.60
2022-09-21T18:21:21.528Z,2.03
2022-09-21T18:23:56.398Z,2.00
2022-09-21T18:26:24.965Z,2.37
2022-09-21T18:28:58.168Z,2.60
2022-09-21T18:31:32.478Z,2.23
2022-09-21T18:34:04.851Z,3.60
2022-09-21T18:36:33.756Z,4.33
2022-09-21T18:39:05.117Z,4.97
2022-09-21T18:41:34.657Z,5.07
2022-09-21T18:44:06.128Z,5.97
2022-09-21T18:46:35.898Z,6.73
2022-09-21T18:49:06.998Z,6.90
2022-09-21T18:51:36.516Z,6.87
2022-09-21T18:54:04.945Z,7.03
2022-09-21T18:56:35.174Z,6.90
2022-09-21T18:59:03.827Z,7.87
2022-09-21T19:01:33.899Z,7.87
2022-09-21T19:04:02.680Z,9.67
2022-09-21T19:06:39.220Z,9.03
2022-09-21T19:09:09.835Z,9.70
2022-09-21T19:11:39.006Z,8.10
2022-09-21T19:14:09.082Z,7.47
2022-09-21T19:16:39.926Z,8.33
2022-09-21T19:19:26.221Z,8.73
2022-09-21T19:21:56.951Z,9.67
2022-09-21T19:24:26.777Z,8.40
2022-09-21T19:26:58.834Z,8.60
2022-09-21T19:29:39.270Z,8.60
2022-09-21T19:32:12.309Z,8.23
2022-09-21T19:34:40.706Z,9.07
2022-09-21T19:37:11.055Z,8.67
2022-09-21T19:39:39.629Z,9.33
2022-09-21T19:42:14.264Z,8.77
2022-09-21T19:44:47.661Z,7.73
2022-09-21T19:47:26.687Z,7.33
2022-09-21T19:49:55.579Z,8.17
2022-09-21T19:52:26.870Z,8.43
2022-09-21T19:55:13.225Z,9.10
2022-09-21T19:57:55.781Z,8.77
2022-09-21T20:00:24.350Z,8.73
2022-09-21T20:02:57.643Z,9.60
2022-09-21T20:05:34.419Z,9.97
2022-09-21T20:08:04.315Z,8.83
2022-09-21T20:10:36.381Z,9.70
2022-09-21T20:13:07.843Z,9.63
2022-09-21T20:15:37.307Z,9.73
2022-09-21T20:18:09.547Z,10.30
2022-09-21T20:20:38.127Z,9.30
2022-09-21T20:23:09.457Z,8.27
2022-09-21T20:25:39.516Z,9.53
2022-09-21T20:28:08.341Z,8.67
2022-09-21T20:30:37.566Z,7.87
2022-09-21T20:33:06.817Z,7.83
2022-09-21T20:35:35.125Z,7.13
2022-09-21T20:38:03.464Z,6.43
2022-09-21T20:40:33.240Z,7.17
2022-09-21T20:43:01.877Z,6.50
2022-09-21T20:45:30.209Z,6.57
2022-09-21T20:48:13.104Z,7.23
2022-09-21T20:50:41.776Z,6.97
2022-09-21T20:53:09.989Z,6.57
2022-09-21T20:55:39.953Z,7.10
2022-09-21T20:58:08.177Z,6.70
2022-09-21T21:00:36.687Z,6.53
2022-09-21T21:03:05.293Z,5.97
2022-09-21T21:05:33.499Z,5.63
2022-09-21T21:08:03.912Z,5.27
2022-09-21T21:10:32.421Z,5.33
2022-09-21T21:13:02.512Z,5.17
2022-09-21T21:15:31.323Z,4.97
2022-09-21T21:17:59.548Z,4.97
2022-09-21T21:20:29.058Z,5.90
2022-09-21T21:22:57.455Z,5.07
2022-09-21T21:25:25.645Z,4.37
2022-09-21T21:27:57.371Z,5.00
2022-09-21T21:30:26.964Z,5.13
2022-09-21T21:32:55.218Z,4.87
2022-09-21T21:35:23.529Z,4.67
2022-09-21T21:37:51.747Z,4.73
2022-09-21T21:40:20.651Z,3.77
2022-09-21T21:42:49.064Z,4.13
2022-09-21T21:45:18.054Z,4.30
2022-09-21T21:47:47.646Z,3.80
2022-09-21T21:50:15.860Z,3.80
2022-09-21T21:52:45.108Z,4.13
2022-09-21T21:55:14.200Z,4.13
2022-09-21T21:57:42.489Z,4.13
2022-09-21T22:00:11.365Z,4.13
2022-09-21T22:02:39.621Z,3.73
2022-09-21T22:05:09.829Z,3.70
2022-09-21T22:07:38.092Z,3.30
2022-09-21T22:10:09.045Z,3.97
2022-09-21T22:12:37.244Z,3.60
2022-09-21T22:15:05.555Z,3.33
2022-09-21T22:17:33.751Z,3.10
2022-09-21T22:20:01.973Z,3.17
2022-09-21T22:22:31.526Z,3.23
2022-09-21T22:24:59.703Z,3.17
2022-09-21T22:27:27.889Z,3.50
2022-09-21T22:29:56.825Z,3.20
2022-09-21T22:32:25.033Z,2.80
2022-09-21T22:34:53.469Z,2.80
2022-09-21T22:37:21.647Z,3.20
2022-09-21T22:39:51.245Z,2.60
2022-09-21T22:42:19.469Z,3.60
2022-09-21T22:44:47.672Z,3.67
2022-09-21T22:47:15.893Z,3.40
2022-09-21T22:49:44.099Z,2.13
2022-09-21T22:52:12.321Z,2.87
2022-09-21T22:54:40.523Z,2.97
2022-09-21T22:57:10.065Z,2.57
2022-09-21T22:59:38.272Z,2.30
2022-09-21T23:02:11.572Z,2.13
2022-09-21T23:04:39.800Z,2.50
2022-09-21T23:07:08.043Z,2.03
2022-09-21T23:09:36.335Z,2.60
2022-09-21T23:12:04.558Z,2.10
2022-09-21T23:14:34.116Z,2.50
2022-09-21T23:17:02.311Z,1.57
2022-09-21T23:19:30.504Z,2.30
2022-09-21T23:21:58.793Z,2.37
2022-09-21T23:24:27.296Z,1.80
2022-09-21T23:26:55.502Z,1.97
2022-09-21T23:29:23.910Z,2.47
2022-09-21T23:31:53.580Z,1.87
2022-09-21T23:34:21.830Z,2.13
2022-09-21T23:36:50.025Z,2.03
2022-09-21T23:39:18.252Z,1.73
2022-09-21T23:41:46.440Z,2.27
2022-09-21T23:44:14.779Z,2.20
2022-09-21T23:46:43.175Z,1.60
2022-09-21T23:49:12.811Z,2.17
2022-09-21T23:51:41.048Z,1.47
2022-09-21T23:54:09.423Z,1.77
2022-09-21T23:56:37.906Z,2.00
2022-09-21T23:59:06.443Z,1.47
